createdAt,value
2018-03-26T00:01:30.882Z,42.73
2018-03-26T00:03:58.231Z,43.47
2018-03-26T00:06:25.716Z,39.70
2018-03-26T00:08:53.170Z,38.97
2018-03-26T00:11:20.547Z,40.33
2018-03-26T00:13:47.918Z,40.53
2018-03-26T00:16:15.335Z,41.00
2018-03-26T00:18:42.794Z,43.03
2018-03-26T00:21:10.130Z,38.40
2018-03-26T00:23:37.500Z,41.23
2018-03-26T00:26:04.846Z,43.13
2018-03-26T00:28:32.264Z,38.73
2018-03-26T00:30:59.606Z,33.30
2018-03-26T00:33:27.026Z,45.67
2018-03-26T00:35:54.390Z,39.17
2018-03-26T00:38:21.763Z,43.67
2018-03-26T00:40:49.115Z,39.17
2018-03-26T00:43:16.524Z,36.83
2018-03-26T00:45:43.872Z,45.23
2018-03-26T00:48:11.242Z,46.83
2018-03-26T00:50:38.614Z,43.87
2018-03-26T00:53:06.070Z,49.83
2018-03-26T00:55:33.440Z,42.87
2018-03-26T00:58:00.883Z,44.63
2018-03-26T01:00:28.224Z,43.40
2018-03-26T01:02:55.619Z,37.60
2018-03-26T01:05:22.992Z,41.17
2018-03-26T01:07:50.363Z,38.93
2018-03-26T01:10:17.760Z,41.00
2018-03-26T01:12:45.155Z,51.93
2018-03-26T01:15:12.505Z,45.80
2018-03-26T01:17:39.904Z,49.90
2018-03-26T01:20:07.283Z,48.97
2018-03-26T01:22:34.741Z,45.97
2018-03-26T01:25:02.098Z,41.03
2018-03-26T01:27:29.556Z,38.77
2018-03-26T01:29:57.014Z,45.57
2018-03-26T01:32:24.401Z,49.60
2018-03-26T01:34:51.768Z,40.50
2018-03-26T01:37:19.176Z,49.60
2018-03-26T01:39:46.519Z,42.20
2018-03-26T01:42:13.989Z,40.97
2018-03-26T01:44:41.352Z,40.97
2018-03-26T01:47:08.703Z,43.20
2018-03-26T01:49:36.156Z,42.77
2018-03-26T01:52:03.514Z,40.03
2018-03-26T01:54:30.901Z,47.23
2018-03-26T01:56:58.270Z,45.20
2018-03-26T01:59:25.691Z,44.67
2018-03-26T02:01:53.032Z,52.67
2018-03-26T02:04:20.413Z,50.10
2018-03-26T02:06:47.777Z,49.50
2018-03-26T02:09:15.198Z,51.00
2018-03-26T02:11:42.555Z,46.67
2018-03-26T02:14:10.026Z,41.87
2018-03-26T02:16:37.383Z,50.93
2018-03-26T02:19:04.855Z,39.87
2018-03-26T02:21:32.216Z,46.77
2018-03-26T02:23:59.594Z,43.13
2018-03-26T02:26:26.936Z,40.83
2018-03-26T02:28:54.326Z,43.50
2018-03-26T02:31:21.701Z,43.57
2018-03-26T02:33:49.080Z,43.37
2018-03-26T02:36:16.521Z,42.67
2018-03-26T02:38:43.908Z,44.03
2018-03-26T02:41:11.289Z,42.33
2018-03-26T02:43:38.684Z,39.53
2018-03-26T02:46:06.027Z,43.20
2018-03-26T02:48:33.433Z,39.33
2018-03-26T02:51:00.791Z,41.37
2018-03-26T02:53:28.169Z,40.70
2018-03-26T02:55:55.526Z,44.07
2018-03-26T02:58:22.895Z,41.37
2018-03-26T03:00:50.264Z,51.47
2018-03-26T03:03:19.158Z,42.70
2018-03-26T03:05:46.512Z,46.63
2018-03-26T03:08:13.892Z,39.80
2018-03-26T03:10:41.333Z,45.47
2018-03-26T03:13:08.718Z,40.40
2018-03-26T03:15:36.074Z,45.03
2018-03-26T03:18:03.456Z,43.70
2018-03-26T03:20:30.810Z,43.50
2018-03-26T03:22:58.150Z,42.80
2018-03-26T03:25:25.528Z,39.50
2018-03-26T03:27:53.021Z,37.43
2018-03-26T03:30:20.396Z,44.50
2018-03-26T03:32:47.765Z,37.93
2018-03-26T03:35:15.141Z,43.77
2018-03-26T03:37:42.504Z,47.73
2018-03-26T03:40:09.867Z,44.30
2018-03-26T03:42:37.244Z,38.73
2018-03-26T03:45:04.624Z,41.90
2018-03-26T03:47:31.984Z,45.10
2018-03-26T03:49:59.363Z,40.47
2018-03-26T03:52:26.711Z,42.77
2018-03-26T03:54:54.095Z,39.40
2018-03-26T03:57:21.462Z,40.83
2018-03-26T03:59:48.829Z,38.57
2018-03-26T04:02:16.186Z,48.53
2018-03-26T04:04:43.563Z,43.47
2018-03-26T04:07:11.004Z,43.97
2018-03-26T04:09:38.373Z,39.00
2018-03-26T04:12:05.818Z,48.93
2018-03-26T04:14:33.223Z,48.20
2018-03-26T04:17:00.569Z,42.03
2018-03-26T04:19:27.952Z,38.10
2018-03-26T04:21:55.299Z,41.23
2018-03-26T04:24:22.686Z,40.63
2018-03-26T04:26:50.036Z,47.93
2018-03-26T04:29:17.447Z,42.50
2018-03-26T04:31:44.834Z,42.30
2018-03-26T04:34:12.218Z,47.97
2018-03-26T04:36:39.572Z,43.63
2018-03-26T04:39:07.004Z,48.47
2018-03-26T04:41:34.485Z,42.30
2018-03-26T04:44:01.900Z,46.80
2018-03-26T04:46:29.249Z,44.90
2018-03-26T04:48:56.671Z,44.37
2018-03-26T04:51:24.048Z,38.00
2018-03-26T04:53:51.394Z,44.80
2018-03-26T04:56:18.786Z,42.67
2018-03-26T04:58:46.211Z,43.13
2018-03-26T05:01:13.622Z,43.30
2018-03-26T05:03:40.966Z,41.60
2018-03-26T05:06:08.554Z,43.57
2018-03-26T05:08:35.934Z,42.87
2018-03-26T05:11:03.316Z,44.88
2018-03-26T05:13:30.663Z,45.10
2018-03-26T05:15:58.044Z,46.13
2018-03-26T05:18:25.387Z,51.50
2018-03-26T05:20:52.764Z,42.70
2018-03-26T05:23:20.116Z,45.97
2018-03-26T05:25:47.486Z,41.17
2018-03-26T05:28:14.837Z,42.30
2018-03-26T05:30:42.247Z,44.23
2018-03-26T05:33:09.611Z,50.77
2018-03-26T05:35:36.977Z,41.60
2018-03-26T05:38:04.316Z,45.20
2018-03-26T05:40:31.736Z,52.03
2018-03-26T05:42:59.084Z,46.90
2018-03-26T05:45:26.555Z,49.70
2018-03-26T05:47:53.907Z,45.53
2018-03-26T05:50:21.278Z,40.80
2018-03-26T05:52:48.659Z,42.07
2018-03-26T05:55:16.055Z,45.43
2018-03-26T05:57:43.442Z,46.00
2018-03-26T06:00:10.808Z,41.70
2018-03-26T06:02:38.150Z,45.77
2018-03-26T06:05:05.542Z,40.27
2018-03-26T06:07:32.952Z,44.23
2018-03-26T06:12:41.990Z,50.07
2018-03-26T06:15:09.360Z,45.70
2018-03-26T06:17:36.744Z,43.87
2018-03-26T06:20:04.114Z,41.47
2018-03-26T06:22:31.448Z,44.47
2018-03-26T06:24:58.844Z,40.10
2018-03-26T06:27:26.234Z,50.60
2018-03-26T06:29:53.687Z,130.43
2018-03-26T06:32:21.035Z,98.57
2018-03-26T06:34:48.422Z,48.97
2018-03-26T06:37:21.512Z,40.37
2018-03-26T06:39:48.899Z,44.67
2018-03-26T06:42:16.249Z,43.70
2018-03-26T06:44:43.594Z,41.53
2018-03-26T06:47:10.997Z,41.87
2018-03-26T06:49:38.344Z,40.43
2018-03-26T06:52:05.703Z,47.80
2018-03-26T06:54:33.087Z,50.80
2018-03-26T06:57:00.464Z,49.73
2018-03-26T06:59:27.835Z,46.60
2018-03-26T07:01:55.240Z,47.37
2018-03-26T07:04:22.698Z,53.10
2018-03-26T07:06:50.065Z,47.50
2018-03-26T07:09:17.404Z,51.57
2018-03-26T07:11:44.779Z,73.87
2018-03-26T07:14:12.123Z,60.53
2018-03-26T07:16:39.490Z,55.80
2018-03-26T07:19:06.829Z,48.13
2018-03-26T07:21:34.284Z,53.93
2018-03-26T07:24:01.647Z,48.70
2018-03-26T07:26:29.021Z,54.00
2018-03-26T07:28:56.430Z,49.77
2018-03-26T07:31:23.803Z,47.37
2018-03-26T07:33:51.156Z,56.97
2018-03-26T07:36:18.537Z,50.80
2018-03-26T07:38:45.895Z,60.50
2018-03-26T07:41:13.345Z,53.67
2018-03-26T07:43:40.705Z,52.40
2018-03-26T07:46:08.098Z,62.13
2018-03-26T07:48:35.494Z,55.20
2018-03-26T07:51:02.866Z,50.73
2018-03-26T07:53:30.221Z,53.70
2018-03-26T07:55:57.599Z,52.03
2018-03-26T07:58:24.961Z,50.27
2018-03-26T08:00:52.335Z,52.83
2018-03-26T08:03:19.691Z,54.60
2018-03-26T08:05:47.083Z,54.37
2018-03-26T08:08:14.444Z,59.37
2018-03-26T08:10:41.832Z,58.80
2018-03-26T08:13:09.175Z,53.13
2018-03-26T08:15:36.538Z,51.47
2018-03-26T08:18:03.945Z,62.90
2018-03-26T08:20:31.287Z,51.47
2018-03-26T08:22:58.664Z,56.57
2018-03-26T08:25:26.014Z,57.20
2018-03-26T08:27:53.687Z,56.20
2018-03-26T08:30:21.028Z,57.20
2018-03-26T08:32:48.424Z,54.17
2018-03-26T08:35:15.772Z,55.10
2018-03-26T08:37:43.140Z,53.30
2018-03-26T08:40:10.484Z,52.83
2018-03-26T08:42:37.876Z,55.70
2018-03-26T08:45:05.213Z,53.90
2018-03-26T08:47:32.566Z,51.53
2018-03-26T08:50:00.107Z,55.33
2018-03-26T08:52:27.327Z,60.00
2018-03-26T08:54:54.669Z,59.03
2018-03-26T08:57:22.033Z,55.63
2018-03-26T08:59:49.399Z,55.97
2018-03-26T09:02:17.066Z,54.23
2018-03-26T09:04:44.407Z,52.00
2018-03-26T09:07:11.773Z,55.57
2018-03-26T09:09:39.114Z,60.20
2018-03-26T09:12:06.485Z,51.83
2018-03-26T09:14:33.837Z,60.03
2018-03-26T09:17:01.208Z,62.27
2018-03-26T09:19:28.552Z,59.20
2018-03-26T09:21:55.931Z,59.33
2018-03-26T09:24:23.285Z,57.57
2018-03-26T09:26:50.655Z,58.53
2018-03-26T09:29:18.028Z,60.93
2018-03-26T09:31:45.433Z,51.87
2018-03-26T09:34:12.884Z,54.97
2018-03-26T09:36:40.253Z,57.70
2018-03-26T09:39:07.696Z,60.10
2018-03-26T09:41:35.087Z,55.70
2018-03-26T09:44:02.430Z,58.10
2018-03-26T09:46:29.780Z,59.27
2018-03-26T09:48:57.218Z,60.90
2018-03-26T09:51:24.573Z,60.00
2018-03-26T09:53:51.947Z,54.43
2018-03-26T09:56:19.316Z,58.70
2018-03-26T09:58:46.741Z,55.70
2018-03-26T10:01:18.087Z,58.60
2018-03-26T10:03:45.472Z,56.77
2018-03-26T10:06:12.918Z,59.03
2018-03-26T10:08:40.359Z,55.00
2018-03-26T10:11:07.720Z,57.10
2018-03-26T10:13:35.171Z,61.03
2018-03-26T10:16:02.527Z,57.60
2018-03-26T10:18:29.899Z,59.50
2018-03-26T10:20:57.341Z,60.23
2018-03-26T10:23:24.714Z,56.33
2018-03-26T10:25:52.068Z,59.70
2018-03-26T10:28:19.435Z,60.30
2018-03-26T10:30:46.885Z,58.37
2018-03-26T10:33:14.252Z,61.00
2018-03-26T10:35:41.594Z,59.80
2018-03-26T10:38:08.994Z,58.53
2018-03-26T10:40:36.351Z,59.73
2018-03-26T10:43:03.841Z,64.40
2018-03-26T10:45:31.192Z,61.93
2018-03-26T10:47:58.561Z,58.90
2018-03-26T10:50:25.907Z,60.17
2018-03-26T10:52:53.330Z,59.70
2018-03-26T10:55:20.701Z,63.53
2018-03-26T10:57:48.073Z,66.70
2018-03-26T11:00:15.425Z,63.80
2018-03-26T11:02:42.794Z,58.90
2018-03-26T11:05:10.143Z,64.57
2018-03-26T11:07:37.547Z,65.00
2018-03-26T11:10:04.885Z,62.20
2018-03-26T11:12:32.241Z,60.03
2018-03-26T11:14:59.611Z,61.57
2018-03-26T11:17:26.955Z,53.63
2018-03-26T11:19:54.322Z,67.97
2018-03-26T11:22:21.679Z,59.80
2018-03-26T11:24:49.081Z,62.07
2018-03-26T11:27:16.462Z,65.33
2018-03-26T11:29:43.841Z,58.03
2018-03-26T11:32:11.183Z,64.37
2018-03-26T11:34:38.566Z,60.90
2018-03-26T11:37:05.906Z,63.50
2018-03-26T11:39:33.304Z,59.73
2018-03-26T11:42:00.654Z,58.00
2018-03-26T11:44:28.021Z,62.63
2018-03-26T11:46:55.364Z,59.73
2018-03-26T11:49:22.739Z,60.67
2018-03-26T11:51:50.084Z,69.67
2018-03-26T11:54:17.541Z,74.43
2018-03-26T11:56:45.002Z,59.13
2018-03-26T11:59:12.370Z,60.80
2018-03-26T12:01:39.714Z,67.67
2018-03-26T12:04:07.078Z,59.17
2018-03-26T12:06:34.445Z,57.40
2018-03-26T12:09:01.816Z,62.30
2018-03-26T12:11:29.207Z,59.97
2018-03-26T12:13:56.574Z,58.90
2018-03-26T12:16:23.927Z,63.50
2018-03-26T12:18:51.323Z,59.77
2018-03-26T12:21:18.670Z,58.33
2018-03-26T12:23:52.030Z,55.33
2018-03-26T12:26:19.365Z,59.13
2018-03-26T12:28:52.792Z,51.30
2018-03-26T12:31:20.131Z,56.23
2018-03-26T12:33:53.338Z,60.50
2018-03-26T12:36:20.711Z,52.97
2018-03-26T12:38:48.063Z,52.13
2018-03-26T12:41:15.488Z,52.93
2018-03-26T12:43:42.849Z,51.40
2018-03-26T12:46:28.120Z,70.00
2018-03-26T12:48:55.455Z,55.00
2018-03-26T12:51:28.693Z,53.03
2018-03-26T12:53:56.036Z,56.87
2018-03-26T12:56:23.426Z,53.60
2018-03-26T12:58:50.804Z,53.70
2018-03-26T13:01:24.142Z,49.33
2018-03-26T13:03:51.484Z,49.50
2018-03-26T13:06:18.874Z,54.60
2018-03-26T13:08:46.226Z,53.87
2018-03-26T13:11:13.611Z,52.67
2018-03-26T13:13:40.973Z,52.80
2018-03-26T13:16:08.360Z,59.23
2018-03-26T13:18:35.742Z,54.63
2018-03-26T13:21:03.172Z,59.90
2018-03-26T13:23:31.495Z,57.93
2018-03-26T13:25:58.971Z,59.70
2018-03-26T13:28:26.315Z,64.43
2018-03-26T13:30:53.696Z,61.20
2018-03-26T13:33:21.035Z,61.90
2018-03-26T13:35:48.405Z,62.67
2018-03-26T13:38:15.741Z,61.70
2018-03-26T13:40:43.107Z,61.90
2018-03-26T13:43:10.451Z,59.30
2018-03-26T13:45:37.819Z,60.17
2018-03-26T13:48:05.169Z,62.57
2018-03-26T13:50:32.540Z,59.53
2018-03-26T13:52:59.874Z,55.83
2018-03-26T13:55:27.247Z,54.43
2018-03-26T13:57:54.587Z,54.27
2018-03-26T14:00:21.950Z,54.47
2018-03-26T14:02:49.299Z,56.20
2018-03-26T14:05:16.639Z,58.40
2018-03-26T14:07:44.014Z,56.17
2018-03-26T14:10:17.264Z,59.57
2018-03-26T14:12:50.659Z,57.47
2018-03-26T14:15:23.926Z,54.90
2018-03-26T14:17:58.067Z,58.37
2018-03-26T14:20:25.423Z,61.73
2018-03-26T14:22:52.789Z,56.63
2018-03-26T14:25:20.137Z,56.80
2018-03-26T14:27:47.514Z,55.90
2018-03-26T14:30:14.854Z,55.80
2018-03-26T14:32:42.228Z,54.27
2018-03-26T14:35:15.578Z,55.50
2018-03-26T14:37:42.978Z,52.23
2018-03-26T14:40:10.320Z,53.10
2018-03-26T14:42:37.683Z,60.70
2018-03-26T14:45:05.026Z,51.57
2018-03-26T14:47:32.404Z,58.23
2018-03-26T14:49:59.744Z,57.37
2018-03-26T14:52:27.136Z,56.30
2018-03-26T14:54:54.475Z,55.87
2018-03-26T14:57:21.859Z,59.43
2018-03-26T14:59:49.222Z,69.97
2018-03-26T15:02:16.597Z,53.27
2018-03-26T15:04:43.967Z,55.00
2018-03-26T15:07:11.341Z,56.33
2018-03-26T15:09:38.700Z,62.27
2018-03-26T15:12:06.068Z,59.00
2018-03-26T15:14:33.412Z,50.50
2018-03-26T15:17:00.776Z,54.60
2018-03-26T15:19:28.115Z,50.87
2018-03-26T15:21:55.485Z,52.50
2018-03-26T15:24:22.826Z,49.33
2018-03-26T15:26:50.202Z,55.27
2018-03-26T15:29:17.571Z,57.53
2018-03-26T15:31:44.957Z,53.80
2018-03-26T15:34:12.296Z,51.80
2018-03-26T15:36:39.641Z,61.53
2018-03-26T15:39:07.008Z,56.83
2018-03-26T15:41:34.347Z,56.10
2018-03-26T15:44:01.719Z,54.93
2018-03-26T15:46:29.071Z,59.93
2018-03-26T15:48:56.455Z,50.53
2018-03-26T15:51:23.848Z,53.13
2018-03-26T15:53:51.223Z,49.20
2018-03-26T15:56:18.573Z,56.77
2018-03-26T15:58:45.933Z,57.40
2018-03-26T16:01:13.295Z,57.27
2018-03-26T16:03:40.667Z,52.70
2018-03-26T16:06:08.006Z,49.90
2018-03-26T16:08:35.377Z,54.80
2018-03-26T16:11:02.781Z,51.63
2018-03-26T16:13:30.133Z,58.17
2018-03-26T16:15:57.479Z,52.43
2018-03-26T16:18:24.847Z,52.77
2018-03-26T16:20:52.188Z,50.43
2018-03-26T16:23:19.554Z,52.30
2018-03-26T16:25:46.899Z,50.50
2018-03-26T16:28:14.267Z,51.20
2018-03-26T16:30:41.637Z,50.33
2018-03-26T16:33:08.998Z,50.97
2018-03-26T16:35:36.338Z,56.23
2018-03-26T16:38:03.707Z,49.27
2018-03-26T16:40:31.049Z,55.87
2018-03-26T16:43:05.744Z,47.60
2018-03-26T16:45:33.323Z,53.03
2018-03-26T16:48:00.815Z,45.58
2018-03-26T16:50:28.156Z,48.40
2018-03-26T16:52:55.518Z,57.10
2018-03-26T16:55:22.864Z,55.50
2018-03-26T16:57:50.235Z,52.83
2018-03-26T17:00:17.613Z,53.23
2018-03-26T17:02:45.899Z,51.80
2018-03-26T17:05:13.391Z,50.37
2018-03-26T17:07:40.752Z,53.13
2018-03-26T17:10:08.092Z,53.53
2018-03-26T17:12:35.433Z,56.03
2018-03-26T17:15:02.807Z,54.30
2018-03-26T17:17:30.168Z,60.63
2018-03-26T17:19:57.539Z,60.60
2018-03-26T17:22:24.890Z,51.20
2018-03-26T17:24:52.267Z,53.97
2018-03-26T17:27:19.613Z,54.47
2018-03-26T17:29:46.976Z,61.07
2018-03-26T17:32:14.328Z,54.57
2018-03-26T17:34:41.717Z,60.57
2018-03-26T17:37:09.072Z,50.23
2018-03-26T17:39:36.770Z,60.93
2018-03-26T17:42:04.501Z,56.37
2018-03-26T17:44:32.126Z,67.47
2018-03-26T17:46:59.475Z,72.50
2018-03-26T17:49:26.846Z,79.80
2018-03-26T17:51:54.183Z,66.30
2018-03-26T17:54:21.556Z,70.73
2018-03-26T17:56:48.904Z,64.70
2018-03-26T17:59:16.272Z,61.87
2018-03-26T18:01:43.615Z,68.10
2018-03-26T18:04:10.983Z,68.87
2018-03-26T18:06:38.328Z,60.30
2018-03-26T18:09:05.695Z,58.30
2018-03-26T18:11:33.083Z,63.00
2018-03-26T18:14:00.454Z,62.87
2018-03-26T18:16:27.796Z,61.87
2018-03-26T18:18:55.238Z,92.80
2018-03-26T18:21:22.579Z,73.80
2018-03-26T18:23:49.952Z,163.37
2018-03-26T18:26:17.291Z,78.03
2018-03-26T18:28:44.661Z,77.73
2018-03-26T18:31:11.995Z,72.20
2018-03-26T18:33:39.359Z,72.20
2018-03-26T18:36:06.696Z,60.60
2018-03-26T18:38:34.114Z,64.40
2018-03-26T18:41:01.459Z,69.00
2018-03-26T18:43:28.811Z,71.77
2018-03-26T18:45:56.183Z,77.73
2018-03-26T18:48:23.536Z,69.17
2018-03-26T18:50:50.902Z,74.47
2018-03-26T18:53:18.247Z,84.70
2018-03-26T18:55:45.614Z,73.53
2018-03-26T18:58:12.962Z,75.90
2018-03-26T19:00:40.333Z,73.47
2018-03-26T19:03:07.675Z,70.60
2018-03-26T19:05:35.054Z,74.87
2018-03-26T19:08:02.460Z,85.57
2018-03-26T19:10:29.827Z,77.37
2018-03-26T19:12:57.194Z,77.80
2018-03-26T19:15:24.569Z,89.60
2018-03-26T19:17:51.914Z,76.50
2018-03-26T19:20:19.362Z,76.50
2018-03-26T19:22:46.712Z,75.07
2018-03-26T19:25:14.151Z,68.17
2018-03-26T19:27:41.540Z,64.57
2018-03-26T19:30:08.911Z,72.27
2018-03-26T19:32:36.260Z,77.93
2018-03-26T19:35:03.634Z,83.67
2018-03-26T19:37:30.978Z,84.00
2018-03-26T19:39:58.917Z,92.13
2018-03-26T19:42:26.433Z,69.37
2018-03-26T19:44:53.827Z,81.93
2018-03-26T19:47:21.274Z,72.50
2018-03-26T19:49:48.640Z,75.73
2018-03-26T19:52:15.995Z,83.70
2018-03-26T19:54:43.457Z,72.67
2018-03-26T19:57:10.807Z,59.70
2018-03-26T19:59:38.174Z,79.37
2018-03-26T20:02:05.518Z,67.57
2018-03-26T20:04:32.894Z,61.93
2018-03-26T20:07:00.230Z,65.33
2018-03-26T20:09:27.599Z,66.43
2018-03-26T20:11:54.943Z,72.60
2018-03-26T20:14:22.286Z,71.50
2018-03-26T20:16:49.648Z,67.13
2018-03-26T20:19:16.993Z,70.67
2018-03-26T20:21:44.360Z,60.40
2018-03-26T20:24:11.712Z,64.23
2018-03-26T20:26:39.079Z,68.90
2018-03-26T20:29:06.424Z,63.67
2018-03-26T20:31:33.803Z,68.80
2018-03-26T20:34:01.147Z,66.13
2018-03-26T20:36:28.512Z,68.70
2018-03-26T20:38:55.867Z,62.07
2018-03-26T20:41:23.248Z,61.53
2018-03-26T20:43:50.592Z,59.47
2018-03-26T20:46:17.960Z,67.73
2018-03-26T20:48:45.300Z,61.63
2018-03-26T20:51:12.677Z,65.50
2018-03-26T20:53:40.023Z,64.20
2018-03-26T20:56:07.580Z,74.23
2018-03-26T20:58:34.972Z,66.87
2018-03-26T21:01:02.331Z,65.23
2018-03-26T21:03:29.676Z,60.17
2018-03-26T21:05:57.054Z,66.90
2018-03-26T21:08:24.400Z,72.97
2018-03-26T21:10:51.803Z,70.27
2018-03-26T21:13:19.196Z,67.37
2018-03-26T21:15:46.568Z,66.03
2018-03-26T21:18:13.933Z,69.37
2018-03-26T21:20:41.323Z,69.30
2018-03-26T21:23:08.698Z,69.37
2018-03-26T21:25:36.089Z,70.93
2018-03-26T21:28:03.443Z,68.90
2018-03-26T21:30:30.856Z,65.07
2018-03-26T21:32:58.203Z,64.87
2018-03-26T21:35:25.575Z,77.23
2018-03-26T21:37:52.925Z,72.07
2018-03-26T21:40:20.261Z,71.13
2018-03-26T21:42:47.842Z,69.37
2018-03-26T21:45:15.192Z,68.73
2018-03-26T21:47:42.557Z,68.23
2018-03-26T21:50:09.994Z,65.03
2018-03-26T21:52:37.389Z,73.13
2018-03-26T21:55:04.824Z,71.47
2018-03-26T21:57:32.281Z,69.53
2018-03-26T21:59:59.667Z,72.57
2018-03-26T22:02:27.084Z,71.33
2018-03-26T22:04:54.470Z,71.17
2018-03-26T22:07:21.835Z,76.37
2018-03-26T22:09:49.259Z,74.07
2018-03-26T22:12:16.716Z,70.73
2018-03-26T22:14:44.092Z,74.20
2018-03-26T22:17:11.472Z,70.83
2018-03-26T22:19:38.849Z,69.53
2018-03-26T22:22:06.218Z,70.10
2018-03-26T22:24:33.564Z,72.23
2018-03-26T22:27:00.960Z,75.63
2018-03-26T22:29:28.375Z,79.37
2018-03-26T22:31:55.890Z,65.30
2018-03-26T22:34:23.234Z,69.80
2018-03-26T22:36:50.627Z,67.30
2018-03-26T22:39:18.071Z,63.40
2018-03-26T22:41:45.456Z,63.30
2018-03-26T22:44:12.836Z,63.97
2018-03-26T22:46:40.243Z,68.47
2018-03-26T22:49:07.607Z,64.93
2018-03-26T22:51:34.980Z,63.83
2018-03-26T22:54:02.356Z,67.90
2018-03-26T22:56:29.726Z,67.30
2018-03-26T22:58:57.075Z,59.93
2018-03-26T23:01:24.458Z,65.40
2018-03-26T23:03:51.816Z,62.63
2018-03-26T23:06:19.184Z,65.70
2018-03-26T23:08:46.540Z,67.10
2018-03-26T23:11:13.905Z,67.93
2018-03-26T23:13:41.282Z,66.63
2018-03-26T23:16:08.627Z,69.27
2018-03-26T23:18:36.011Z,66.07
2018-03-26T23:21:03.376Z,67.57
2018-03-26T23:23:30.764Z,79.93
2018-03-26T23:25:58.189Z,69.00
2018-03-26T23:28:25.559Z,59.67
2018-03-26T23:30:52.927Z,62.70
2018-03-26T23:33:20.306Z,63.80
2018-03-26T23:35:47.663Z,62.90
2018-03-26T23:38:15.066Z,62.27
2018-03-26T23:40:42.522Z,70.30
2018-03-26T23:43:09.882Z,67.83
2018-03-26T23:45:37.227Z,70.50
2018-03-26T23:48:04.641Z,65.67
2018-03-26T23:50:32.147Z,70.43
2018-03-26T23:52:59.548Z,70.53
2018-03-26T23:55:26.964Z,65.37
2018-03-26T23:57:54.356Z,70.30
